createdAt,value
2019-05-23T00:01:28.819Z,66.01
2019-05-23T00:04:16.812Z,65.95
2019-05-23T00:06:47.549Z,66.03
2019-05-23T00:09:18.468Z,66.28
2019-05-23T00:12:00.720Z,67.01
2019-05-23T00:14:44.033Z,66.09
2019-05-23T00:17:20.822Z,66.47
2019-05-23T00:19:52.232Z,65.87
2019-05-23T00:22:22.411Z,66.85
2019-05-23T00:24:53.614Z,66.64
2019-05-23T00:27:24.937Z,65.74
2019-05-23T00:29:57.431Z,66.43
2019-05-23T00:32:38.529Z,66.11
2019-05-23T00:35:09.937Z,66.43
2019-05-23T00:37:43.035Z,65.82
2019-05-23T00:40:15.989Z,66.80
2019-05-23T00:42:46.384Z,66.51
2019-05-23T00:45:17.458Z,67.37
2019-05-23T00:47:48.553Z,66.65
2019-05-23T00:50:21.346Z,66.26
2019-05-23T00:52:53.131Z,66.04
2019-05-23T00:55:24.030Z,66.32
2019-05-23T00:57:54.719Z,65.64
2019-05-23T01:00:25.747Z,67.08
2019-05-23T01:02:56.966Z,66.43
2019-05-23T01:05:28.133Z,66.14
2019-05-23T01:07:59.876Z,66.12
2019-05-23T01:10:31.220Z,65.82
2019-05-23T01:13:01.192Z,65.98
2019-05-23T01:15:32.939Z,66.72
2019-05-23T01:18:04.049Z,66.00
2019-05-23T01:20:49.618Z,65.61
2019-05-23T01:23:20.573Z,66.38
2019-05-23T01:25:50.828Z,66.53
2019-05-23T01:28:21.220Z,66.05
2019-05-23T01:30:53.091Z,66.81
2019-05-23T01:33:23.345Z,66.97
2019-05-23T01:35:54.045Z,67.32
2019-05-23T01:38:24.230Z,66.90
2019-05-23T01:40:54.798Z,66.19
2019-05-23T01:43:26.346Z,66.61
2019-05-23T01:45:56.570Z,67.81
2019-05-23T01:48:27.652Z,66.00
2019-05-23T01:50:58.395Z,66.41
2019-05-23T01:53:29.692Z,67.69
2019-05-23T01:55:59.885Z,67.38
2019-05-23T01:58:30.665Z,66.95
2019-05-23T02:01:01.310Z,66.59
2019-05-23T02:03:31.820Z,66.58
2019-05-23T02:06:02.224Z,66.40
2019-05-23T02:08:33.899Z,66.22
2019-05-23T02:11:04.293Z,66.33
2019-05-23T02:13:35.560Z,65.95
2019-05-23T02:16:06.235Z,66.46
2019-05-23T02:18:36.646Z,68.33
2019-05-23T02:21:07.719Z,67.51
2019-05-23T02:23:37.746Z,66.52
2019-05-23T02:26:09.313Z,67.42
2019-05-23T02:28:39.697Z,67.24
2019-05-23T02:31:11.035Z,66.75
2019-05-23T02:33:41.621Z,67.29
2019-05-23T02:36:12.845Z,67.00
2019-05-23T02:38:59.834Z,67.42
2019-05-23T02:41:47.872Z,67.31
2019-05-23T02:44:21.431Z,67.74
2019-05-23T02:47:06.102Z,67.22
2019-05-23T02:49:37.931Z,67.68
2019-05-23T02:52:49.858Z,68.29
2019-05-23T02:55:30.594Z,67.73
2019-05-23T02:58:21.896Z,68.49
2019-05-23T03:01:27.746Z,67.86
2019-05-23T03:04:02.073Z,66.84
2019-05-23T03:06:32.350Z,66.83
2019-05-23T03:09:04.510Z,66.97
2019-05-23T03:11:39.827Z,66.78
2019-05-23T03:14:16.241Z,67.03
2019-05-23T03:16:51.034Z,67.30
2019-05-23T03:19:38.620Z,67.43
2019-05-23T03:22:39.951Z,67.81
2019-05-23T03:25:54.486Z,67.67
2019-05-23T03:28:27.531Z,67.74
2019-05-23T03:31:25.325Z,68.65
2019-05-23T03:33:33.057Z,68.75
2019-05-23T03:36:03.148Z,68.15
2019-05-23T03:38:34.266Z,67.74
2019-05-23T03:41:05.389Z,67.46
2019-05-23T03:43:36.782Z,67.71
2019-05-23T03:46:09.158Z,67.74
2019-05-23T03:48:40.724Z,67.08
2019-05-23T03:51:10.787Z,67.66
2019-05-23T03:53:42.460Z,68.53
2019-05-23T03:56:13.564Z,67.80
2019-05-23T03:58:45.003Z,67.35
2019-05-23T04:01:16.190Z,67.80
2019-05-23T04:03:47.565Z,67.97
2019-05-23T04:06:17.895Z,68.25
2019-05-23T04:08:48.678Z,68.29
2019-05-23T04:11:19.487Z,68.66
2019-05-23T04:13:49.781Z,68.07
2019-05-23T04:17:03.871Z,68.87
2019-05-23T04:19:34.941Z,67.64
2019-05-23T04:22:13.965Z,68.21
2019-05-23T04:24:50.332Z,68.89
2019-05-23T04:27:25.470Z,69.03
2019-05-23T04:30:05.486Z,69.73
2019-05-23T04:33:08.482Z,68.79
2019-05-23T04:35:38.416Z,67.98
2019-05-23T04:38:09.589Z,68.42
2019-05-23T04:40:40.020Z,67.32
2019-05-23T04:43:09.952Z,66.76
2019-05-23T04:45:40.014Z,65.36
2019-05-23T04:48:10.460Z,65.22
2019-05-23T04:50:41.195Z,64.45
2019-05-23T04:53:11.321Z,64.60
2019-05-23T04:55:42.253Z,63.24
2019-05-23T04:58:13.671Z,63.21
2019-05-23T05:00:44.173Z,64.42
2019-05-23T05:03:18.272Z,63.85
2019-05-23T05:05:47.663Z,63.77
2019-05-23T05:08:17.690Z,64.24
2019-05-23T05:10:48.352Z,62.88
2019-05-23T05:13:18.419Z,63.78
2019-05-23T05:15:48.293Z,63.04
2019-05-23T05:18:18.489Z,63.44
2019-05-23T05:20:48.926Z,62.97
2019-05-23T05:23:19.059Z,62.88
2019-05-23T05:25:48.931Z,62.63
2019-05-23T05:28:19.415Z,59.09
2019-05-23T05:30:49.361Z,53.64
2019-05-23T05:33:19.563Z,55.26
2019-05-23T05:35:49.692Z,57.68
2019-05-23T05:38:20.706Z,57.86
2019-05-23T05:40:51.726Z,59.47
2019-05-23T05:43:21.919Z,59.58
2019-05-23T05:45:51.784Z,59.97
2019-05-23T05:48:21.895Z,60.07
2019-05-23T05:50:51.982Z,60.58
2019-05-23T05:53:22.096Z,61.30
2019-05-23T05:55:52.112Z,59.91
2019-05-23T05:58:22.127Z,59.52
2019-05-23T06:00:56.545Z,59.47
2019-05-23T06:03:26.566Z,58.70
2019-05-23T06:06:09.553Z,56.92
2019-05-23T06:08:40.635Z,54.11
2019-05-23T06:11:10.777Z,57.67
2019-05-23T06:13:41.006Z,58.20
2019-05-23T06:16:11.820Z,58.13
2019-05-23T06:18:42.153Z,59.19
2019-05-23T06:21:14.636Z,58.33
2019-05-23T06:23:44.986Z,55.82
2019-05-23T06:26:15.215Z,56.19
2019-05-23T06:28:46.008Z,57.11
2019-05-23T06:31:39.507Z,58.15
2019-05-23T06:34:10.770Z,57.40
2019-05-23T06:36:41.108Z,58.66
2019-05-23T06:39:13.290Z,58.37
2019-05-23T06:41:43.613Z,59.41
2019-05-23T06:44:15.140Z,58.11
2019-05-23T06:46:45.141Z,58.36
2019-05-23T06:49:15.492Z,62.14
2019-05-23T06:51:45.481Z,58.65
2019-05-23T06:54:18.073Z,57.22
2019-05-23T06:56:48.660Z,54.52
2019-05-23T06:59:19.509Z,52.60
2019-05-23T07:01:49.523Z,55.69
2019-05-23T07:04:20.120Z,52.00
2019-05-23T07:06:50.883Z,53.48
2019-05-23T07:09:21.419Z,51.92
2019-05-23T07:11:56.592Z,51.43
2019-05-23T07:14:26.686Z,49.46
2019-05-23T07:16:57.060Z,51.98
2019-05-23T07:19:27.182Z,49.25
2019-05-23T07:21:57.146Z,49.61
2019-05-23T07:24:28.105Z,51.17
2019-05-23T07:26:58.210Z,52.34
2019-05-23T07:29:28.220Z,53.41
2019-05-23T07:31:58.923Z,53.66
2019-05-23T07:34:29.681Z,53.72
2019-05-23T07:37:00.745Z,53.59
2019-05-23T07:39:30.801Z,52.85
2019-05-23T07:42:01.340Z,52.41
2019-05-23T07:44:47.387Z,52.52
2019-05-23T07:47:06.269Z,52.89
2019-05-23T07:49:36.846Z,53.30
2019-05-23T07:52:06.840Z,52.23
2019-05-23T07:54:54.130Z,52.58
2019-05-23T07:57:25.640Z,53.25
2019-05-23T07:59:55.971Z,51.88
2019-05-23T08:02:37.188Z,52.33
2019-05-23T08:05:08.343Z,53.20
2019-05-23T08:07:38.458Z,52.22
2019-05-23T08:10:09.166Z,51.90
2019-05-23T08:12:39.926Z,53.27
2019-05-23T08:15:11.175Z,51.62
2019-05-23T08:17:41.237Z,51.59
2019-05-23T08:20:14.344Z,51.82
2019-05-23T08:22:44.573Z,51.16
2019-05-23T08:25:14.599Z,51.44
2019-05-23T08:27:45.628Z,51.21
2019-05-23T08:30:16.855Z,48.78
2019-05-23T08:32:46.870Z,49.54
2019-05-23T08:35:18.204Z,49.57
2019-05-23T08:37:48.348Z,50.32
2019-05-23T08:40:18.775Z,51.06
2019-05-23T08:42:48.644Z,51.53
2019-05-23T08:45:19.347Z,49.38
2019-05-23T08:47:49.507Z,49.16
2019-05-23T08:50:21.176Z,49.71
2019-05-23T08:52:51.321Z,48.87
2019-05-23T08:55:23.423Z,47.86
2019-05-23T08:57:54.534Z,46.88
2019-05-23T09:00:27.070Z,46.51
2019-05-23T09:02:59.075Z,45.82
2019-05-23T09:05:30.450Z,45.58
2019-05-23T09:08:01.117Z,46.96
2019-05-23T09:10:32.901Z,47.80
2019-05-23T09:13:03.404Z,45.69
2019-05-23T09:15:33.369Z,46.38
2019-05-23T09:18:04.831Z,46.69
2019-05-23T09:20:34.976Z,45.82
2019-05-23T09:23:05.225Z,44.78
2019-05-23T09:25:35.271Z,43.78
2019-05-23T09:28:06.395Z,43.79
2019-05-23T09:30:37.062Z,43.35
2019-05-23T09:33:07.142Z,42.09
2019-05-23T09:35:37.316Z,41.99
2019-05-23T09:38:07.251Z,42.38
2019-05-23T09:40:37.383Z,42.35
2019-05-23T09:43:07.821Z,45.75
2019-05-23T09:45:37.938Z,43.73
2019-05-23T09:48:08.350Z,40.84
2019-05-23T09:50:38.357Z,38.62
2019-05-23T09:53:08.375Z,41.35
2019-05-23T09:55:38.250Z,41.44
2019-05-23T09:58:08.205Z,41.73
2019-05-23T10:00:40.212Z,41.42
2019-05-23T10:03:10.580Z,41.99
2019-05-23T10:05:43.759Z,42.33
2019-05-23T10:08:12.797Z,42.13
2019-05-23T10:10:42.853Z,42.21
2019-05-23T10:13:12.839Z,42.43
2019-05-23T10:15:51.553Z,41.79
2019-05-23T10:18:22.127Z,42.60
2019-05-23T10:20:52.207Z,40.43
2019-05-23T10:23:29.952Z,40.17
2019-05-23T10:26:01.626Z,40.87
2019-05-23T10:28:31.674Z,41.91
2019-05-23T10:31:01.856Z,41.42
2019-05-23T10:33:31.941Z,41.64
2019-05-23T10:36:02.408Z,43.17
2019-05-23T10:38:32.592Z,44.51
2019-05-23T10:41:03.521Z,43.47
2019-05-23T10:43:33.468Z,42.29
2019-05-23T10:46:03.492Z,42.91
2019-05-23T10:48:33.943Z,42.91
2019-05-23T10:51:04.481Z,41.48
2019-05-23T10:53:34.544Z,41.93
2019-05-23T10:56:04.725Z,40.39
2019-05-23T10:58:35.048Z,40.48
2019-05-23T11:01:05.233Z,41.76
2019-05-23T11:03:35.958Z,42.02
2019-05-23T11:06:15.505Z,42.53
2019-05-23T11:08:39.513Z,41.43
2019-05-23T11:11:14.157Z,42.17
2019-05-23T11:13:44.355Z,43.17
2019-05-23T11:16:14.760Z,42.49
2019-05-23T11:18:45.026Z,41.29
2019-05-23T11:21:14.909Z,40.82
2019-05-23T11:23:49.512Z,41.87
2019-05-23T11:26:19.533Z,41.16
2019-05-23T11:28:49.848Z,42.49
2019-05-23T11:31:19.975Z,40.97
2019-05-23T11:33:49.951Z,41.15
2019-05-23T11:36:35.023Z,42.42
2019-05-23T11:38:51.867Z,42.26
2019-05-23T11:41:22.633Z,43.23
2019-05-23T11:43:52.731Z,42.75
2019-05-23T11:46:28.660Z,42.61
2019-05-23T11:48:58.771Z,42.62
2019-05-23T11:51:28.954Z,42.96
2019-05-23T11:54:07.862Z,42.12
2019-05-23T11:56:31.951Z,42.91
2019-05-23T11:59:02.228Z,41.53
2019-05-23T12:01:47.874Z,40.21
2019-05-23T12:04:39.459Z,41.82
2019-05-23T12:07:15.079Z,41.28
2019-05-23T12:09:45.002Z,40.34
2019-05-23T12:12:14.997Z,40.66
2019-05-23T12:14:45.187Z,41.55
2019-05-23T12:17:16.916Z,42.05
2019-05-23T12:19:46.926Z,41.37
2019-05-23T12:22:18.088Z,40.89
2019-05-23T12:24:48.111Z,41.30
2019-05-23T12:27:18.068Z,40.58
2019-05-23T12:29:48.407Z,40.66
2019-05-23T12:32:18.479Z,41.18
2019-05-23T12:35:08.603Z,40.96
2019-05-23T12:37:20.865Z,40.67
2019-05-23T12:39:51.991Z,40.87
2019-05-23T12:42:22.079Z,39.92
2019-05-23T12:44:52.096Z,40.50
2019-05-23T12:47:29.283Z,41.62
2019-05-23T12:50:04.513Z,41.23
2019-05-23T12:52:35.005Z,39.35
2019-05-23T12:55:05.972Z,40.16
2019-05-23T12:57:36.113Z,40.46
2019-05-23T13:00:09.949Z,39.80
2019-05-23T13:02:40.080Z,40.00
2019-05-23T13:05:32.710Z,40.17
2019-05-23T13:08:06.076Z,39.50
2019-05-23T13:10:34.989Z,39.63
2019-05-23T13:13:05.756Z,39.48
2019-05-23T13:15:36.452Z,38.54
2019-05-23T13:18:06.929Z,39.31
2019-05-23T13:20:39.061Z,38.81
2019-05-23T13:23:13.396Z,40.04
2019-05-23T13:25:40.989Z,39.74
2019-05-23T13:28:11.194Z,39.59
2019-05-23T13:30:41.239Z,39.78
2019-05-23T13:33:11.463Z,39.82
2019-05-23T13:35:41.976Z,39.96
2019-05-23T13:38:11.926Z,39.66
2019-05-23T13:40:41.960Z,38.82
2019-05-23T13:43:12.169Z,39.17
2019-05-23T13:45:42.235Z,39.73
2019-05-23T13:48:12.410Z,40.51
2019-05-23T13:50:42.882Z,39.74
2019-05-23T13:53:13.439Z,39.00
2019-05-23T13:55:43.720Z,40.95
2019-05-23T13:58:14.760Z,40.48
2019-05-23T14:00:45.288Z,40.87
2019-05-23T14:03:15.565Z,39.98
2019-05-23T14:05:45.760Z,40.83
2019-05-23T14:08:19.196Z,39.17
2019-05-23T14:10:47.438Z,40.85
2019-05-23T14:13:17.393Z,39.15
2019-05-23T14:15:49.428Z,38.77
2019-05-23T14:18:21.112Z,38.58
2019-05-23T14:20:51.376Z,39.78
2019-05-23T14:23:39.963Z,38.88
2019-05-23T14:26:11.533Z,38.45
2019-05-23T14:28:41.618Z,40.11
2019-05-23T14:31:13.628Z,40.99
2019-05-23T14:34:06.328Z,40.57
2019-05-23T14:36:54.463Z,38.74
2019-05-23T14:39:41.955Z,38.53
2019-05-23T14:42:28.508Z,37.94
2019-05-23T14:45:00.277Z,38.26
2019-05-23T14:47:47.975Z,38.32
2019-05-23T14:50:43.913Z,37.45
2019-05-23T14:53:16.130Z,37.52
2019-05-23T14:55:46.477Z,37.69
2019-05-23T14:58:16.868Z,38.46
2019-05-23T15:00:48.312Z,38.12
2019-05-23T15:03:19.361Z,39.24
2019-05-23T15:05:49.875Z,40.24
2019-05-23T15:08:20.802Z,40.71
2019-05-23T15:10:50.713Z,40.86
2019-05-23T15:13:20.653Z,40.72
2019-05-23T15:15:50.587Z,39.53
2019-05-23T15:18:20.576Z,39.21
2019-05-23T15:20:50.621Z,38.06
2019-05-23T15:23:20.648Z,38.40
2019-05-23T15:25:50.792Z,37.66
2019-05-23T15:28:20.814Z,37.76
2019-05-23T15:30:51.038Z,37.23
2019-05-23T15:33:21.102Z,36.83
2019-05-23T15:35:51.082Z,36.69
2019-05-23T15:38:21.130Z,37.00
2019-05-23T15:40:51.103Z,36.98
2019-05-23T15:43:24.137Z,37.47
2019-05-23T15:45:54.119Z,38.36
2019-05-23T15:48:25.936Z,38.20
2019-05-23T15:50:56.588Z,38.09
2019-05-23T15:53:46.384Z,37.43
2019-05-23T15:56:35.467Z,37.84
2019-05-23T15:59:17.847Z,37.33
2019-05-23T16:01:55.231Z,38.36
2019-05-23T16:04:25.813Z,38.71
2019-05-23T16:06:57.055Z,38.46
2019-05-23T16:09:30.593Z,38.09
2019-05-23T16:12:00.368Z,37.94
2019-05-23T16:14:32.402Z,38.39
2019-05-23T16:17:03.031Z,37.86
2019-05-23T16:19:33.801Z,37.23
2019-05-23T16:22:04.790Z,36.63
2019-05-23T16:24:35.624Z,37.04
2019-05-23T16:27:08.303Z,36.46
2019-05-23T16:29:38.913Z,36.79
2019-05-23T16:32:09.482Z,36.27
2019-05-23T16:34:40.486Z,36.03
2019-05-23T16:37:10.410Z,36.67
2019-05-23T16:39:47.261Z,36.62
2019-05-23T16:42:12.202Z,37.09
2019-05-23T16:44:42.949Z,36.91
2019-05-23T16:47:12.856Z,38.70
2019-05-23T16:49:42.762Z,38.98
2019-05-23T16:52:12.801Z,39.57
2019-05-23T16:54:45.424Z,38.59
2019-05-23T16:57:22.852Z,36.72
2019-05-23T17:00:05.408Z,36.40
2019-05-23T17:02:51.448Z,36.53
2019-05-23T17:05:41.061Z,37.16
2019-05-23T17:08:19.706Z,36.97
2019-05-23T17:10:58.716Z,37.73
2019-05-23T17:13:35.895Z,38.54
2019-05-23T17:16:24.378Z,39.53
2019-05-23T17:19:06.550Z,39.60
2019-05-23T17:22:13.674Z,39.94
2019-05-23T17:24:58.854Z,39.10
2019-05-23T17:27:43.063Z,39.43
2019-05-23T17:30:42.932Z,38.82
2019-05-23T17:33:14.244Z,38.55
2019-05-23T17:35:44.533Z,39.01
2019-05-23T17:38:14.574Z,38.77
2019-05-23T17:40:44.580Z,38.73
2019-05-23T17:43:14.651Z,39.23
2019-05-23T17:45:44.851Z,39.86
2019-05-23T17:48:14.903Z,39.75
2019-05-23T17:50:45.195Z,39.66
2019-05-23T17:53:15.613Z,39.09
2019-05-23T17:55:45.962Z,39.13
2019-05-23T17:58:17.620Z,39.28
2019-05-23T18:00:49.028Z,39.17
2019-05-23T18:03:20.246Z,39.88
2019-05-23T18:05:51.424Z,39.36
2019-05-23T18:08:21.957Z,40.37
2019-05-23T18:10:53.279Z,39.82
2019-05-23T18:13:24.891Z,39.46
2019-05-23T18:15:55.600Z,39.66
2019-05-23T18:18:26.277Z,39.04
2019-05-23T18:20:56.764Z,39.25
2019-05-23T18:23:28.215Z,38.95
2019-05-23T18:25:59.335Z,38.85
2019-05-23T18:28:31.298Z,38.43
2019-05-23T18:31:08.047Z,38.69
2019-05-23T18:33:37.172Z,38.61
2019-05-23T18:36:07.280Z,38.71
2019-05-23T18:38:38.379Z,38.89
2019-05-23T18:41:09.559Z,38.84
2019-05-23T18:43:40.270Z,38.92
2019-05-23T18:46:15.631Z,38.74
2019-05-23T18:48:45.789Z,38.71
2019-05-23T18:51:15.992Z,38.90
2019-05-23T18:53:46.375Z,39.21
2019-05-23T18:56:16.982Z,39.37
2019-05-23T18:58:47.176Z,39.17
2019-05-23T19:01:22.473Z,38.97
2019-05-23T19:03:52.622Z,39.05
2019-05-23T19:06:23.021Z,39.16
2019-05-23T19:08:53.011Z,39.47
2019-05-23T19:11:23.374Z,39.95
2019-05-23T19:13:53.324Z,39.79
2019-05-23T19:16:23.215Z,41.17
2019-05-23T19:18:53.661Z,41.08
2019-05-23T19:21:24.911Z,40.06
2019-05-23T19:23:55.953Z,40.73
2019-05-23T19:26:26.293Z,41.70
2019-05-23T19:28:56.415Z,42.53
2019-05-23T19:31:26.955Z,42.97
2019-05-23T19:33:57.550Z,42.54
2019-05-23T19:36:30.202Z,43.06
2019-05-23T19:39:01.025Z,42.30
2019-05-23T19:41:37.692Z,43.12
2019-05-23T19:44:05.073Z,42.71
2019-05-23T19:46:35.673Z,43.30
2019-05-23T19:49:06.049Z,42.82
2019-05-23T19:51:36.127Z,42.29
2019-05-23T19:54:08.565Z,42.75
2019-05-23T19:56:38.717Z,42.56
2019-05-23T19:59:08.724Z,43.13
2019-05-23T20:01:51.142Z,43.39
2019-05-23T20:04:26.193Z,43.18
2019-05-23T20:06:54.881Z,43.91
2019-05-23T20:09:26.867Z,43.45
2019-05-23T20:11:57.684Z,43.87
2019-05-23T20:14:27.620Z,45.34
2019-05-23T20:16:57.537Z,45.13
2019-05-23T20:19:27.614Z,45.46
2019-05-23T20:21:57.518Z,45.65
2019-05-23T20:24:27.817Z,45.86
2019-05-23T20:26:58.319Z,45.89
2019-05-23T20:29:28.910Z,46.04
2019-05-23T20:31:58.799Z,47.56
2019-05-23T20:34:28.907Z,47.14
2019-05-23T20:36:58.851Z,47.77
2019-05-23T20:39:29.098Z,47.83
2019-05-23T20:42:10.808Z,47.60
2019-05-23T20:44:31.111Z,47.66
2019-05-23T20:47:01.086Z,48.08
2019-05-23T20:49:30.958Z,47.75
2019-05-23T20:52:00.945Z,48.24
2019-05-23T20:54:33.540Z,48.17
2019-05-23T20:57:02.831Z,48.53
2019-05-23T20:59:32.793Z,48.91
2019-05-23T21:02:03.010Z,49.82
2019-05-23T21:04:33.224Z,50.57
2019-05-23T21:07:03.323Z,49.79
2019-05-23T21:09:33.462Z,49.73
2019-05-23T21:12:03.463Z,49.72
2019-05-23T21:14:33.419Z,50.61
2019-05-23T21:17:03.451Z,50.15
2019-05-23T21:19:34.159Z,50.51
2019-05-23T21:22:04.692Z,50.81
2019-05-23T21:24:35.774Z,50.15
2019-05-23T21:27:05.843Z,50.50
2019-05-23T21:29:36.043Z,52.29
2019-05-23T21:32:06.298Z,51.79
2019-05-23T21:34:36.216Z,50.90
2019-05-23T21:37:06.309Z,51.69
2019-05-23T21:39:39.098Z,51.94
2019-05-23T21:42:11.027Z,52.54
2019-05-23T21:44:43.635Z,52.87
2019-05-23T21:47:14.453Z,52.10
2019-05-23T21:49:44.384Z,52.34
2019-05-23T21:52:14.905Z,52.77
2019-05-23T21:54:46.317Z,52.71
2019-05-23T21:57:16.452Z,52.01
2019-05-23T21:59:47.036Z,51.62
2019-05-23T22:02:24.628Z,52.55
2019-05-23T22:05:11.528Z,52.01
2019-05-23T22:07:41.950Z,52.33
2019-05-23T22:10:12.493Z,52.79
2019-05-23T22:12:42.745Z,52.45
2019-05-23T22:15:18.363Z,52.59
2019-05-23T22:17:49.091Z,53.01
2019-05-23T22:20:19.463Z,53.15
2019-05-23T22:22:49.736Z,53.79
2019-05-23T22:25:32.814Z,53.32
2019-05-23T22:28:02.923Z,53.62
2019-05-23T22:30:33.206Z,54.23
2019-05-23T22:33:03.179Z,53.79
2019-05-23T22:35:33.651Z,53.82
2019-05-23T22:38:03.605Z,54.46
2019-05-23T22:40:33.585Z,54.56
2019-05-23T22:43:03.765Z,54.26
2019-05-23T22:45:34.601Z,54.50
2019-05-23T22:48:04.880Z,54.42
2019-05-23T22:50:34.947Z,53.64
2019-05-23T22:53:04.999Z,54.19
2019-05-23T22:55:35.062Z,54.27
2019-05-23T22:58:06.103Z,54.32
2019-05-23T23:00:37.638Z,54.54
2019-05-23T23:03:07.533Z,54.56
2019-05-23T23:05:37.477Z,55.53
2019-05-23T23:08:07.724Z,56.13
2019-05-23T23:10:37.748Z,55.12
2019-05-23T23:13:07.729Z,54.95
2019-05-23T23:15:37.894Z,55.00
2019-05-23T23:18:08.480Z,55.19
2019-05-23T23:20:38.538Z,55.87
2019-05-23T23:23:08.448Z,55.19
2019-05-23T23:25:38.477Z,55.72
2019-05-23T23:28:08.414Z,56.58
2019-05-23T23:30:39.911Z,56.08
2019-05-23T23:33:09.817Z,56.57
2019-05-23T23:35:39.876Z,56.02
2019-05-23T23:38:10.170Z,57.94
2019-05-23T23:40:40.114Z,56.35
2019-05-23T23:43:10.162Z,57.06
2019-05-23T23:45:58.143Z,57.28
2019-05-23T23:48:45.671Z,56.91
2019-05-23T23:51:33.463Z,56.25
2019-05-23T23:54:20.926Z,56.59
2019-05-23T23:57:08.395Z,57.35
2019-05-23T23:59:37.507Z,58.28
